Time;durP1;ratioP1;P1;durP2;ratioP2;P2;SDS_P1;SDS_P2;PMS_P1;PMS_P2;Temp;Humidity;BMP_temperature;BMP_pressure;BME280_temperature;BME280_humidity;BME280_pressure;Samples;Min_cycle;Max_cycle;Signal;HPM_P1;HPM_P2
2022/10/26 00:01:06;;;;;;;1.58;1.30;;;10.30;99.90;;;;;;5063367;28;20054;-81
2022/10/26 00:03:34;;;;;;;2.92;1.40;;;10.40;99.90;;;;;;5065833;28;20036;-81
2022/10/26 00:06:20;;;;;;;1.80;1.20;;;10.30;99.90;;;;;;5073627;28;20028;-82
2022/10/26 00:08:46;;;;;;;2.67;1.20;;;10.50;99.90;;;;;;5068705;28;20355;-70
2022/10/26 00:11:12;;;;;;;1.80;1.30;;;10.60;99.90;;;;;;5064663;28;20036;-71
2022/10/26 00:13:39;;;;;;;2.75;1.27;;;10.60;99.90;;;;;;5049855;28;20032;-71
2022/10/26 00:16:10;;;;;;;2.10;1.20;;;10.50;99.90;;;;;;5067290;28;20047;-70
2022/10/26 00:18:36;;;;;;;3.73;1.60;;;10.30;99.90;;;;;;5068608;28;20033;-70
2022/10/26 00:21:03;;;;;;;2.97;1.30;;;10.30;99.90;;;;;;5063301;28;20284;-70
2022/10/26 00:23:30;;;;;;;1.33;1.17;;;10.30;99.90;;;;;;5065792;28;20047;-72
2022/10/26 00:25:56;;;;;;;2.25;1.20;;;10.30;99.90;;;;;;5065921;28;20581;-71
2022/10/26 00:28:22;;;;;;;0.93;0.90;;;10.30;99.90;;;;;;5065274;28;20089;-71
2022/10/26 00:30:48;;;;;;;3.47;1.60;;;10.40;99.90;;;;;;5056673;28;20043;-71
2022/10/26 00:33:13;;;;;;;1.88;1.15;;;10.40;99.90;;;;;;5067391;28;20024;-71
2022/10/26 00:35:39;;;;;;;3.00;1.15;;;10.40;99.90;;;;;;5072393;28;20455;-71
2022/10/26 00:38:04;;;;;;;1.10;0.98;;;10.40;99.90;;;;;;5064077;28;20035;-71
2022/10/26 00:40:30;;;;;;;2.67;0.90;;;10.30;99.90;;;;;;5066206;28;20530;-71
2022/10/26 00:42:56;;;;;;;8.65;1.50;;;10.20;99.90;;;;;;5063157;28;20062;-71
2022/10/26 00:45:25;;;;;;;1.40;1.02;;;10.10;99.90;;;;;;5060820;28;20028;-79
2022/10/26 00:47:57;;;;;;;3.17;1.33;;;10.10;99.90;;;;;;5049254;28;20032;-79
2022/10/26 00:50:33;;;;;;;1.05;0.95;;;10.10;99.90;;;;;;5056314;28;20216;-79
2022/10/26 00:53:02;;;;;;;6.28;1.50;;;10.00;99.90;;;;;;5067232;28;20024;-79
2022/10/26 00:55:31;;;;;;;1.30;1.08;;;10.00;99.90;;;;;;5064867;28;20028;-79
2022/10/26 00:57:58;;;;;;;4.93;1.10;;;10.10;99.90;;;;;;5069635;28;20082;-79
2022/10/26 01:00:23;;;;;;;1.90;1.15;;;10.10;99.90;;;;;;5066073;28;20093;-78
2022/10/26 01:02:53;;;;;;;0.88;0.88;;;10.10;99.90;;;;;;5071822;28;20040;-78
2022/10/26 01:05:20;;;;;;;3.92;1.00;;;10.00;99.90;;;;;;5076819;28;20036;-78
2022/10/26 01:07:47;;;;;;;1.00;0.90;;;9.90;99.90;;;;;;5077177;28;20016;-78
2022/10/26 01:10:14;;;;;;;0.73;0.73;;;9.90;99.90;;;;;;5072481;28;20036;-78
2022/10/26 01:12:40;;;;;;;2.42;1.00;;;9.80;99.90;;;;;;5067342;28;20028;-78
2022/10/26 01:15:06;;;;;;;1.13;0.80;;;9.80;99.90;;;;;;5064644;28;20707;-78
2022/10/26 01:17:50;;;;;;;0.73;0.73;;;9.80;99.90;;;;;;5072881;28;20027;-78
2022/10/26 01:20:43;;;;;;;1.67;0.90;;;9.90;99.90;;;;;;5066099;28;20116;-78
2022/10/26 01:23:14;;;;;;;1.92;0.90;;;9.90;99.90;;;;;;5074528;28;20044;-70
2022/10/26 01:25:42;;;;;;;1.00;0.90;;;9.90;99.90;;;;;;5069971;28;20025;-70
2022/10/26 01:28:43;;;;;;;1.67;1.10;;;10.00;99.90;;;;;;5064765;28;20489;-71
2022/10/26 01:31:15;;;;;;;3.13;0.80;;;10.00;99.90;;;;;;5031606;28;20036;-71
2022/10/26 01:33:51;;;;;;;2.83;0.73;;;9.90;99.90;;;;;;5063841;28;20034;-71
2022/10/26 01:36:55;;;;;;;2.92;0.90;;;9.90;99.90;;;;;;5064395;28;20056;-71
2022/10/26 01:39:33;;;;;;;2.35;0.90;;;9.90;99.90;;;;;;4991879;28;20410;-71
2022/10/26 01:42:00;;;;;;;1.58;0.93;;;9.90;99.90;;;;;;5060845;28;20037;-71
2022/10/26 01:44:41;;;;;;;1.35;1.02;;;10.00;99.90;;;;;;5070659;28;20101;-79
2022/10/26 01:47:10;;;;;;;2.80;0.90;;;10.00;99.90;;;;;;5062268;28;20056;-80
2022/10/26 01:49:40;;;;;;;5.13;1.45;;;10.00;99.90;;;;;;5064462;28;21205;-79
2022/10/26 01:52:09;;;;;;;1.17;1.08;;;10.00;99.90;;;;;;5069495;28;20031;-79
2022/10/26 01:54:35;;;;;;;2.38;1.17;;;9.90;99.90;;;;;;5072020;28;20031;-78
2022/10/26 01:57:04;;;;;;;2.80;1.38;;;9.90;99.90;;;;;;5068197;28;20112;-79
2022/10/26 01:59:47;;;;;;;1.85;1.33;;;10.00;99.90;;;;;;5070072;28;20401;-78
2022/10/26 02:02:35;;;;;;;3.03;0.82;;;9.90;99.90;;;;;;5067889;28;20111;-71
2022/10/26 02:05:15;;;;;;;2.40;1.00;;;9.80;99.90;;;;;;5055215;28;20044;-71
2022/10/26 02:07:56;;;;;;;1.27;0.80;;;9.70;99.90;;;;;;5071876;28;20032;-71
2022/10/26 02:10:35;;;;;;;2.73;0.83;;;9.60;99.90;;;;;;5072830;28;20087;-71
2022/10/26 02:13:05;;;;;;;1.80;1.20;;;9.60;99.90;;;;;;5070818;28;20027;-71
2022/10/26 02:15:33;;;;;;;2.40;1.30;;;9.60;99.90;;;;;;5071876;28;20063;-71
2022/10/26 02:18:26;;;;;;;1.80;0.95;;;9.60;99.90;;;;;;5075182;28;20024;-71
2022/10/26 02:20:57;;;;;;;5.97;1.02;;;9.60;99.90;;;;;;5073215;28;20368;-71
2022/10/26 02:23:25;;;;;;;1.70;1.10;;;9.60;99.90;;;;;;5069423;28;20044;-71
2022/10/26 02:25:55;;;;;;;1.13;1.02;;;9.60;99.90;;;;;;5073873;28;20031;-71
2022/10/26 02:28:27;;;;;;;1.15;0.80;;;9.50;99.90;;;;;;5069389;28;20032;-71
2022/10/26 02:30:55;;;;;;;1.17;0.93;;;9.40;99.90;;;;;;5050707;28;20025;-71
2022/10/26 02:33:23;;;;;;;1.15;1.00;;;9.40;99.90;;;;;;5068292;28;20580;-71
2022/10/26 02:35:51;;;;;;;1.45;1.00;;;9.40;99.90;;;;;;5071426;28;20031;-71
2022/10/26 02:38:19;;;;;;;3.65;0.85;;;9.30;99.90;;;;;;5071268;28;20031;-79
2022/10/26 02:40:47;;;;;;;1.40;1.00;;;9.20;99.90;;;;;;5081850;28;20119;-78
2022/10/26 02:43:14;;;;;;;3.00;2.55;;;9.20;99.90;;;;;;5077890;28;20920;-78
2022/10/26 02:45:47;;;;;;;5.97;2.78;;;9.20;99.90;;;;;;5077722;28;20027;-77
2022/10/26 02:48:13;;;;;;;17.33;12.50;;;9.10;99.90;;;;;;5080768;28;20024;-78
2022/10/26 02:50:59;;;;;;;3.13;2.65;;;9.10;99.90;;;;;;5079085;28;20028;-78
2022/10/26 02:53:27;;;;;;;2.72;1.48;;;9.00;99.90;;;;;;5075795;28;20071;-78
2022/10/26 02:55:53;;;;;;;1.40;1.30;;;9.00;99.90;;;;;;5077793;28;20664;-77
2022/10/26 02:58:27;;;;;;;1.95;1.25;;;9.00;99.90;;;;;;5072399;28;20047;-78
2022/10/26 03:00:53;;;;;;;2.88;1.40;;;9.00;99.90;;;;;;5075988;28;20235;-78
2022/10/26 03:03:19;;;;;;;1.95;1.55;;;9.00;99.90;;;;;;5086451;28;20043;-78
2022/10/26 03:05:45;;;;;;;2.17;1.30;;;8.90;99.90;;;;;;5085585;28;20061;-78
2022/10/26 03:08:11;;;;;;;1.85;1.60;;;9.00;99.90;;;;;;5087299;28;20096;-78
2022/10/26 03:10:41;;;;;;;2.67;1.50;;;8.90;99.90;;;;;;5081526;28;20462;-78
2022/10/26 03:13:07;;;;;;;3.25;1.70;;;9.00;99.90;;;;;;5082952;28;20028;-78
2022/10/26 03:15:33;;;;;;;2.90;1.33;;;9.00;99.90;;;;;;5077588;28;20090;-78
2022/10/26 03:17:58;;;;;;;2.60;1.40;;;9.00;99.90;;;;;;5082418;28;20332;-78
2022/10/26 03:20:24;;;;;;;2.42;1.60;;;9.00;99.90;;;;;;5086316;28;20450;-78
2022/10/26 03:22:50;;;;;;;1.42;1.33;;;8.90;99.90;;;;;;5084495;28;20653;-78
2022/10/26 03:25:15;;;;;;;2.10;1.80;;;8.90;99.90;;;;;;5079836;28;20020;-78
2022/10/26 03:27:42;;;;;;;1.65;1.55;;;8.80;99.90;;;;;;5080193;28;20062;-79
2022/10/26 03:30:08;;;;;;;2.95;1.67;;;8.70;99.90;;;;;;5066152;28;20051;-78
2022/10/26 03:32:33;;;;;;;2.05;1.70;;;8.80;99.90;;;;;;5085117;28;20055;-78
2022/10/26 03:34:59;;;;;;;2.65;1.15;;;8.80;99.90;;;;;;5082413;28;20033;-79
2022/10/26 03:37:25;;;;;;;2.75;1.88;;;8.90;99.90;;;;;;5080649;28;20063;-79
2022/10/26 03:39:50;;;;;;;2.10;1.55;;;8.90;99.90;;;;;;5079160;28;20020;-78
2022/10/26 03:42:16;;;;;;;2.50;1.52;;;8.90;99.90;;;;;;5076231;28;20040;-79
2022/10/26 03:44:42;;;;;;;1.80;1.27;;;8.90;99.90;;;;;;5071170;28;20035;-78
2022/10/26 03:47:07;;;;;;;2.42;1.52;;;9.00;99.90;;;;;;5070482;28;20046;-78
2022/10/26 03:49:34;;;;;;;3.53;1.63;;;9.00;99.90;;;;;;5074612;28;20032;-79
2022/10/26 03:52:00;;;;;;;6.40;1.90;;;9.10;99.90;;;;;;5067977;28;20025;-79
2022/10/26 03:54:26;;;;;;;3.53;1.80;;;9.10;99.90;;;;;;5053428;28;20079;-78
2022/10/26 03:56:51;;;;;;;1.80;1.60;;;9.10;99.90;;;;;;5076173;28;20111;-79
2022/10/26 03:59:17;;;;;;;2.50;1.80;;;9.10;99.90;;;;;;5071384;28;20347;-78
2022/10/26 04:01:43;;;;;;;1.88;1.50;;;9.10;99.90;;;;;;5051917;28;20043;-78
2022/10/26 04:04:08;;;;;;;2.10;2.00;;;9.10;99.90;;;;;;5072927;28;20048;-79
2022/10/26 04:06:34;;;;;;;2.25;1.70;;;9.20;99.90;;;;;;5073447;28;20491;-78
2022/10/26 04:09:01;;;;;;;2.72;1.90;;;9.20;99.90;;;;;;5071900;28;20699;-79
2022/10/26 04:11:27;;;;;;;2.10;1.60;;;9.30;99.90;;;;;;5068683;28;20047;-77
2022/10/26 04:13:54;;;;;;;3.83;2.08;;;9.30;99.90;;;;;;5072147;28;20095;-78
2022/10/26 04:16:20;;;;;;;14.80;12.57;;;9.20;99.90;;;;;;5058061;28;20020;-78
2022/10/26 04:18:46;;;;;;;13.68;10.02;;;9.00;99.90;;;;;;5072229;28;20110;-78
2022/10/26 04:21:12;;;;;;;13.40;10.70;;;9.00;99.90;;;;;;5070823;28;20032;-78
2022/10/26 04:23:37;;;;;;;10.98;8.60;;;8.90;99.90;;;;;;5077703;28;20097;-79
2022/10/26 04:26:06;;;;;;;9.43;8.50;;;8.90;99.90;;;;;;5068976;28;20036;-78
2022/10/26 04:28:32;;;;;;;12.85;9.40;;;9.00;99.90;;;;;;5074574;28;20063;-78
2022/10/26 04:30:57;;;;;;;12.23;8.52;;;9.00;99.90;;;;;;5073078;28;20583;-78
2022/10/26 04:33:23;;;;;;;8.70;7.47;;;9.00;99.90;;;;;;5064707;28;20876;-76
2022/10/26 04:35:49;;;;;;;11.52;6.45;;;9.00;99.90;;;;;;5071221;28;20047;-72
2022/10/26 04:38:14;;;;;;;7.05;5.57;;;9.00;99.90;;;;;;5070568;28;20165;-72
2022/10/26 04:40:40;;;;;;;12.88;8.27;;;9.00;99.90;;;;;;5072582;28;20024;-72
2022/10/26 04:43:06;;;;;;;11.88;8.25;;;9.00;99.90;;;;;;5071328;28;20070;-72
2022/10/26 04:45:31;;;;;;;19.33;11.15;;;9.00;99.90;;;;;;5069188;28;20025;-72
2022/10/26 04:48:03;;;;;;;21.83;15.45;;;9.00;99.90;;;;;;5073511;28;20040;-72
2022/10/26 04:50:29;;;;;;;4.93;3.60;;;9.00;99.90;;;;;;5067104;28;20024;-72
2022/10/26 04:52:55;;;;;;;4.28;3.50;;;9.10;99.90;;;;;;5064559;28;20032;-81
2022/10/26 04:55:20;;;;;;;6.07;3.53;;;9.00;99.90;;;;;;5058330;28;20033;-81
2022/10/26 04:57:46;;;;;;;8.77;5.95;;;9.00;99.90;;;;;;5046631;28;20032;-82
2022/10/26 05:00:12;;;;;;;12.13;6.28;;;9.00;99.90;;;;;;5063719;28;20031;-81
2022/10/26 05:02:37;;;;;;;9.70;6.15;;;8.90;99.90;;;;;;5076422;28;20040;-80
2022/10/26 05:05:03;;;;;;;8.65;6.07;;;8.90;99.90;;;;;;5070357;28;20044;-78
2022/10/26 05:07:29;;;;;;;10.98;7.05;;;8.90;99.90;;;;;;5077446;28;20026;-84
2022/10/26 05:09:54;;;;;;;10.70;7.78;;;9.00;99.90;;;;;;5071953;28;20039;-86
2022/10/26 05:12:20;;;;;;;14.43;8.93;;;9.00;99.90;;;;;;5082944;28;20031;-72
2022/10/26 05:14:45;;;;;;;13.02;9.18;;;8.90;99.90;;;;;;5067289;28;20718;-73
2022/10/26 05:17:11;;;;;;;16.88;11.02;;;8.90;99.90;;;;;;5065268;28;20048;-73
2022/10/26 05:19:36;;;;;;;17.45;12.05;;;8.90;99.90;;;;;;5074436;28;20374;-73
2022/10/26 05:22:03;;;;;;;20.23;12.85;;;8.90;99.90;;;;;;5072131;28;20052;-73
2022/10/26 05:24:28;;;;;;;13.10;8.18;;;8.90;99.90;;;;;;5064428;28;20039;-73
2022/10/26 05:26:54;;;;;;;9.88;6.10;;;8.90;99.90;;;;;;5053880;28;20086;-73
2022/10/26 05:29:19;;;;;;;9.85;6.68;;;8.90;99.90;;;;;;5075132;28;20028;-73
2022/10/26 05:31:45;;;;;;;8.82;4.57;;;8.80;99.90;;;;;;5066348;28;20493;-72
2022/10/26 05:34:11;;;;;;;10.45;5.10;;;8.70;99.90;;;;;;5056134;28;20533;-74
2022/10/26 05:36:36;;;;;;;10.15;5.40;;;8.70;99.90;;;;;;5070966;28;20066;-73
2022/10/26 05:39:02;;;;;;;10.15;6.03;;;8.70;99.90;;;;;;5072604;28;20028;-73
2022/10/26 05:41:27;;;;;;;7.40;5.57;;;8.70;99.90;;;;;;5069415;28;20035;-73
2022/10/26 05:43:53;;;;;;;10.20;6.88;;;8.70;99.90;;;;;;5050353;28;20042;-72
2022/10/26 05:46:18;;;;;;;12.80;7.88;;;8.70;99.90;;;;;;5072297;28;20039;-73
2022/10/26 05:48:44;;;;;;;13.75;8.25;;;8.70;99.90;;;;;;5070625;28;20043;-73
2022/10/26 05:51:11;;;;;;;8.90;7.15;;;8.80;99.90;;;;;;5068757;28;20023;-72
2022/10/26 05:53:37;;;;;;;11.85;8.50;;;8.80;99.90;;;;;;5073067;28;20050;-70
2022/10/26 05:56:12;;;;;;;10.73;5.93;;;8.80;99.90;;;;;;5075937;28;20492;-70
2022/10/26 05:58:38;;;;;;;5.80;4.78;;;8.90;99.90;;;;;;5071760;28;20039;-70
2022/10/26 06:01:33;;;;;;;12.15;4.95;;;8.90;99.90;;;;;;5068184;28;20032;-70
2022/10/26 06:04:08;;;;;;;14.05;7.95;;;9.00;99.90;;;;;;5059275;28;20139;-70
2022/10/26 06:06:43;;;;;;;15.48;8.48;;;9.00;99.90;;;;;;5074130;28;20012;-70
2022/10/26 06:09:13;;;;;;;16.17;7.93;;;8.90;99.90;;;;;;5068612;28;20024;-70
2022/10/26 06:11:39;;;;;;;29.98;9.10;;;8.90;99.90;;;;;;5074135;28;20435;-70
2022/10/26 06:14:06;;;;;;;13.50;8.77;;;8.90;99.90;;;;;;5072956;28;20035;-70
2022/10/26 06:16:39;;;;;;;12.55;8.43;;;9.00;99.90;;;;;;5071555;28;21057;-70
2022/10/26 06:19:28;;;;;;;22.38;9.73;;;9.10;99.90;;;;;;5071496;28;20036;-70
2022/10/26 06:22:06;;;;;;;13.95;9.40;;;9.10;99.90;;;;;;5071217;28;20513;-70
2022/10/26 06:24:58;;;;;;;18.95;10.15;;;9.20;99.90;;;;;;5072988;28;20047;-70
2022/10/26 06:27:57;;;;;;;16.25;9.18;;;9.30;99.90;;;;;;5074973;28;20024;-70
2022/10/26 06:30:23;;;;;;;20.35;9.50;;;9.40;99.90;;;;;;5061619;28;20071;-70
2022/10/26 06:32:52;;;;;;;34.42;16.65;;;9.60;99.90;;;;;;5075314;28;20097;-70
2022/10/26 06:35:49;;;;;;;36.10;18.88;;;9.70;99.90;;;;;;5068169;28;20024;-70
2022/10/26 06:38:20;;;;;;;35.10;18.67;;;9.70;99.90;;;;;;5047012;28;21607;-71
2022/10/26 06:40:50;;;;;;;36.05;15.90;;;9.80;99.90;;;;;;5070288;28;20025;-71
2022/10/26 06:43:32;;;;;;;29.98;13.77;;;9.90;99.90;;;;;;5072457;28;20033;-70
2022/10/26 06:46:24;;;;;;;18.55;14.68;;;10.00;99.90;;;;;;5069209;28;20028;-70
2022/10/26 06:49:03;;;;;;;23.75;10.45;;;10.00;99.90;;;;;;5073096;28;20074;-70
2022/10/26 06:51:30;;;;;;;4.00;3.50;;;10.10;99.90;;;;;;5068063;28;20039;-71
2022/10/26 06:54:19;;;;;;;7.20;3.95;;;10.20;99.90;;;;;;5072294;28;20048;-71
2022/10/26 06:56:45;;;;;;;8.68;5.70;;;10.30;99.90;;;;;;5069132;28;20388;-71
2022/10/26 06:59:49;;;;;;;6.25;4.72;;;10.50;99.90;;;;;;5072815;28;20028;-71
2022/10/26 07:02:14;;;;;;;4.70;3.90;;;10.60;99.90;;;;;;5064304;28;20074;-71
2022/10/26 07:04:43;;;;;;;4.25;3.80;;;10.80;99.90;;;;;;5063703;28;20123;-71
2022/10/26 07:07:19;;;;;;;4.45;3.60;;;11.10;99.90;;;;;;5067677;28;20548;-85
2022/10/26 07:09:44;;;;;;;8.73;6.05;;;11.30;99.90;;;;;;5070138;28;20103;-84
2022/10/26 07:12:10;;;;;;;11.60;9.77;;;11.50;99.90;;;;;;5071143;28;20028;-85
2022/10/26 07:14:35;;;;;;;9.45;8.48;;;11.70;99.90;;;;;;5076377;28;20069;-87
2022/10/26 07:17:01;;;;;;;9.43;8.32;;;11.90;99.90;;;;;;5074066;28;20758;-86
2022/10/26 07:19:27;;;;;;;11.23;9.27;;;12.10;99.90;;;;;;5069094;28;20034;-85
2022/10/26 07:21:58;;;;;;;19.40;12.00;;;12.30;99.90;;;;;;5074609;28;20493;-85
2022/10/26 07:24:23;;;;;;;10.57;8.70;;;12.40;99.90;;;;;;5076531;28;20081;-85
2022/10/26 07:26:49;;;;;;;6.93;6.25;;;12.60;99.90;;;;;;5070586;28;20036;-86
2022/10/26 07:29:18;;;;;;;7.15;6.28;;;12.80;99.90;;;;;;5073805;28;20111;-86
2022/10/26 07:31:43;;;;;;;6.20;5.03;;;13.00;99.90;;;;;;5069731;28;20094;-86
2022/10/26 07:34:09;;;;;;;5.50;4.90;;;13.20;99.90;;;;;;5069679;28;20031;-86
2022/10/26 07:36:35;;;;;;;6.32;5.20;;;13.40;99.90;;;;;;5051812;28;20035;-86
2022/10/26 07:39:02;;;;;;;6.88;5.63;;;13.60;99.90;;;;;;5076537;28;20032;-86
2022/10/26 07:41:28;;;;;;;7.18;5.97;;;13.70;99.90;;;;;;5063751;28;20032;-85
2022/10/26 07:43:53;;;;;;;6.65;5.70;;;13.90;99.90;;;;;;5069129;28;20257;-82
2022/10/26 07:46:19;;;;;;;9.82;8.82;;;14.00;99.90;;;;;;5062176;28;20473;-86
2022/10/26 07:48:44;;;;;;;8.20;7.38;;;14.00;99.90;;;;;;5050237;28;20032;-85
2022/10/26 07:51:10;;;;;;;11.25;9.75;;;14.10;99.90;;;;;;5073483;28;20493;-85
2022/10/26 07:53:36;;;;;;;17.05;12.68;;;14.20;99.90;;;;;;5071147;28;20028;-83
2022/10/26 07:56:01;;;;;;;8.48;7.18;;;14.40;99.90;;;;;;5073145;28;20028;-85
2022/10/26 07:58:27;;;;;;;18.33;14.77;;;14.50;99.90;;;;;;5070954;28;20155;-85
2022/10/26 08:00:53;;;;;;;8.13;7.32;;;14.60;99.90;;;;;;5067660;28;20063;-84
2022/10/26 08:03:19;;;;;;;6.93;5.50;;;14.80;99.90;;;;;;5064398;28;20101;-82
2022/10/26 08:05:46;;;;;;;6.97;5.97;;;15.00;99.90;;;;;;5044243;28;20107;-84
2022/10/26 08:08:13;;;;;;;6.13;4.40;;;15.10;99.90;;;;;;5076515;28;20568;-81
2022/10/26 08:10:42;;;;;;;4.95;4.00;;;15.30;99.90;;;;;;5068375;28;20032;-85
2022/10/26 08:13:08;;;;;;;4.72;3.70;;;15.50;99.90;;;;;;5068785;28;20496;-83
2022/10/26 08:15:34;;;;;;;5.28;2.90;;;15.60;99.90;;;;;;5066332;28;20311;-84
2022/10/26 08:17:59;;;;;;;5.43;3.35;;;15.80;99.90;;;;;;5072434;28;20032;-83
2022/10/26 08:20:25;;;;;;;3.60;2.92;;;15.80;99.90;;;;;;5074591;28;20024;-83
2022/10/26 08:22:51;;;;;;;4.38;3.08;;;15.90;99.90;;;;;;5069247;28;20060;-83
2022/10/26 08:25:17;;;;;;;5.03;3.05;;;16.00;99.90;;;;;;5050652;28;20055;-83
2022/10/26 08:27:43;;;;;;;7.32;3.15;;;16.10;99.90;;;;;;5071811;28;20561;-82
2022/10/26 08:30:09;;;;;;;4.93;3.47;;;16.40;99.90;;;;;;5071819;28;20028;-83
2022/10/26 08:32:34;;;;;;;5.30;3.15;;;16.40;99.90;;;;;;5072247;28;20028;-84
2022/10/26 08:35:00;;;;;;;3.83;2.90;;;16.50;99.90;;;;;;5072290;28;20043;-83
2022/10/26 08:37:26;;;;;;;3.35;2.97;;;16.60;99.90;;;;;;5074704;28;20882;-82
2022/10/26 08:39:51;;;;;;;5.55;3.58;;;16.70;99.90;;;;;;5074827;28;24022;-84
2022/10/26 08:42:42;;;;;;;4.28;3.40;;;16.70;99.90;;;;;;5072997;28;20036;-71
2022/10/26 08:45:26;;;;;;;3.80;2.85;;;16.80;99.90;;;;;;5068200;28;20048;-72
2022/10/26 08:47:56;;;;;;;4.90;2.90;;;16.90;99.90;;;;;;5067666;28;20028;-72
2022/10/26 08:51:08;;;;;;;3.88;2.70;;;17.00;99.90;;;;;;5076933;28;20484;-72
2022/10/26 08:53:49;;;;;;;3.75;2.70;;;17.10;99.90;;;;;;5062562;28;20037;-75
2022/10/26 08:56:38;;;;;;;5.60;3.55;;;17.20;99.90;;;;;;5069267;28;20118;-74
2022/10/26 08:59:24;;;;;;;3.97;3.22;;;17.20;99.90;;;;;;5053212;28;20119;-72
2022/10/26 09:01:49;;;;;;;6.70;3.60;;;17.10;99.90;;;;;;5069430;28;20024;-72
2022/10/26 09:04:15;;;;;;;3.13;2.78;;;17.20;99.90;;;;;;5071525;28;20872;-72
2022/10/26 09:07:22;;;;;;;5.25;3.25;;;17.30;99.90;;;;;;5074687;28;20473;-72
2022/10/26 09:10:09;;;;;;;3.90;2.95;;;17.30;99.90;;;;;;5071607;28;20040;-72
2022/10/26 09:13:07;;;;;;;2.88;2.58;;;17.30;99.90;;;;;;5072695;28;20143;-72
2022/10/26 09:15:51;;;;;;;3.67;3.00;;;17.40;99.90;;;;;;5029442;28;20044;-72
2022/10/26 09:18:28;;;;;;;4.03;2.85;;;17.50;99.90;;;;;;5076974;28;20031;-72
2022/10/26 09:21:07;;;;;;;4.95;2.95;;;17.50;99.90;;;;;;5067347;28;20053;-82
2022/10/26 09:24:04;;;;;;;3.20;2.47;;;17.50;99.90;;;;;;5072532;28;20593;-81
2022/10/26 09:26:39;;;;;;;3.58;2.70;;;17.60;99.90;;;;;;5051410;28;20067;-82
2022/10/26 09:29:12;;;;;;;3.33;2.55;;;17.70;99.90;;;;;;5063522;28;20054;-83
2022/10/26 09:31:45;;;;;;;3.05;2.10;;;17.70;99.90;;;;;;5065929;28;20107;-82
2022/10/26 09:34:26;;;;;;;4.60;2.75;;;17.60;99.90;;;;;;5063319;28;20028;-82
2022/10/26 09:36:57;;;;;;;2.40;2.20;;;17.60;99.90;;;;;;5064014;28;20035;-82
2022/10/26 09:39:41;;;;;;;3.92;2.17;;;17.60;99.90;;;;;;5061093;28;20036;-82
2022/10/26 09:42:19;;;;;;;4.45;2.42;;;17.60;99.90;;;;;;5071455;28;20055;-83
2022/10/26 09:44:53;;;;;;;5.18;2.75;;;17.60;99.90;;;;;;5055134;28;20509;-83
2022/10/26 09:47:31;;;;;;;7.15;6.07;;;17.60;99.90;;;;;;5073584;28;20035;-83
2022/10/26 09:50:13;;;;;;;6.18;3.78;;;17.70;99.90;;;;;;5064223;28;20146;-82
2022/10/26 09:52:39;;;;;;;5.32;4.00;;;17.60;99.90;;;;;;5058378;28;20028;-70
2022/10/26 09:55:05;;;;;;;4.43;2.22;;;17.70;99.90;;;;;;5067599;28;20025;-84
2022/10/26 09:57:31;;;;;;;6.38;2.67;;;17.70;99.90;;;;;;5073354;28;20047;-82
2022/10/26 09:59:57;;;;;;;3.15;2.17;;;17.70;99.90;;;;;;5070236;28;20035;-73
2022/10/26 10:02:43;;;;;;;5.78;3.33;;;17.70;99.90;;;;;;5070511;28;20039;-73
2022/10/26 10:05:21;;;;;;;6.38;3.35;;;17.70;99.90;;;;;;5068458;28;20050;-73
2022/10/26 10:07:46;;;;;;;5.57;3.17;;;17.60;99.90;;;;;;5069455;28;20024;-72
2022/10/26 10:10:20;;;;;;;4.60;3.75;;;17.60;99.90;;;;;;5066968;28;20047;-73
2022/10/26 10:12:49;;;;;;;4.43;3.88;;;17.50;99.90;;;;;;5063271;28;20030;-72
2022/10/26 10:15:21;;;;;;;5.00;3.47;;;17.50;99.90;;;;;;5066659;28;20040;-71
2022/10/26 10:17:48;;;;;;;4.20;3.50;;;17.50;99.90;;;;;;5068365;28;20024;-82
2022/10/26 10:20:20;;;;;;;9.20;3.63;;;17.50;99.90;;;;;;5056099;28;20424;-81
2022/10/26 10:22:56;;;;;;;5.97;3.75;;;17.50;99.90;;;;;;5063862;28;20028;-80
2022/10/26 10:25:33;;;;;;;4.25;3.50;;;17.50;99.90;;;;;;5073347;28;20037;-81
2022/10/26 10:27:58;;;;;;;4.65;4.25;;;17.40;99.90;;;;;;5062504;28;20042;-81
2022/10/26 10:30:30;;;;;;;6.05;3.70;;;17.40;99.90;;;;;;5070166;28;20036;-81
2022/10/26 10:33:09;;;;;;;6.53;3.50;;;17.50;99.90;;;;;;5069983;28;20039;-80
2022/10/26 10:35:36;;;;;;;5.10;3.00;;;17.50;99.90;;;;;;5069530;28;20038;-82
2022/10/26 10:38:02;;;;;;;4.03;3.05;;;17.50;99.90;;;;;;5064177;28;20036;-81
2022/10/26 10:40:30;;;;;;;4.80;2.78;;;17.50;99.90;;;;;;5063245;28;20017;-83
2022/10/26 10:43:06;;;;;;;7.57;3.35;;;17.50;99.90;;;;;;5073528;28;20024;-81
2022/10/26 10:45:33;;;;;;;4.03;2.85;;;17.60;99.90;;;;;;5069947;28;20032;-81
2022/10/26 10:48:13;;;;;;;3.78;2.88;;;17.60;99.90;;;;;;5075143;28;20035;-82
2022/10/26 10:50:59;;;;;;;3.90;2.85;;;17.60;99.90;;;;;;5076366;28;20397;-82
2022/10/26 10:53:25;;;;;;;3.38;2.42;;;17.60;99.90;;;;;;5072118;28;20125;-81
2022/10/26 10:56:18;;;;;;;4.20;2.75;;;17.60;99.90;;;;;;5073219;28;20134;-81
2022/10/26 10:58:50;;;;;;;5.18;3.40;;;17.60;99.90;;;;;;5073817;28;20078;-81
2022/10/26 11:01:21;;;;;;;5.25;2.97;;;17.60;99.90;;;;;;5069147;28;20059;-81
2022/10/26 11:04:02;;;;;;;4.00;3.10;;;17.70;99.90;;;;;;5070302;28;20515;-81
2022/10/26 11:06:28;;;;;;;4.85;3.20;;;17.60;99.90;;;;;;5072150;28;20028;-81
2022/10/26 11:09:08;;;;;;;6.05;3.40;;;17.60;99.90;;;;;;5068665;28;20634;-81
2022/10/26 11:11:42;;;;;;;4.18;3.35;;;17.60;99.90;;;;;;5063867;28;20034;-81
2022/10/26 11:14:15;;;;;;;5.05;3.38;;;17.60;99.90;;;;;;5073071;28;20047;-81
2022/10/26 11:16:54;;;;;;;5.80;3.33;;;17.60;99.90;;;;;;5071872;28;20020;-81
2022/10/26 11:19:31;;;;;;;5.03;2.97;;;17.60;99.90;;;;;;5072190;28;20500;-80
2022/10/26 11:21:57;;;;;;;4.28;2.90;;;17.70;99.90;;;;;;5066248;28;20056;-82
2022/10/26 11:24:39;;;;;;;5.07;3.33;;;17.70;99.90;;;;;;5075822;28;20562;-82
2022/10/26 11:27:11;;;;;;;;;;;17.70;99.90;;;;;;5077296;28;20046;-82
2022/10/26 11:29:46;;;;;;;5.72;3.55;;;17.70;99.90;;;;;;5071921;28;19912;-82
2022/10/26 11:32:23;;;;;;;4.65;3.38;;;17.80;99.90;;;;;;5075536;28;20036;-82
2022/10/26 11:35:17;;;;;;;6.18;3.20;;;17.80;99.90;;;;;;5077006;28;20094;-81
2022/10/26 11:38:09;;;;;;;6.05;3.22;;;17.80;99.90;;;;;;5076055;28;20485;-82
2022/10/26 11:40:52;;;;;;;4.40;3.17;;;17.80;99.90;;;;;;5073010;28;20600;-82
2022/10/26 11:44:05;;;;;;;6.57;3.63;;;17.80;99.90;;;;;;5072618;28;20558;-82
2022/10/26 11:46:38;;;;;;;6.65;3.30;;;17.80;99.90;;;;;;4997593;28;20109;-82
2022/10/26 11:49:13;;;;;;;6.45;3.38;;;17.80;99.90;;;;;;5066953;28;20029;-81
2022/10/26 11:51:55;;;;;;;6.28;3.50;;;17.80;99.90;;;;;;5071113;28;20102;-71
2022/10/26 11:54:33;;;;;;;;;;;17.80;99.90;;;;;;5070956;28;20032;-72
2022/10/26 11:57:00;;;;;;;3.88;3.42;;;17.70;99.90;;;;;;5071910;28;19979;-71
2022/10/26 11:59:29;;;;;;;6.68;3.70;;;17.70;99.90;;;;;;5068915;28;20323;-72
2022/10/26 12:02:05;;;;;;;5.75;3.83;;;17.80;99.90;;;;;;5076383;28;20031;-71
2022/10/26 12:04:34;;;;;;;6.35;3.92;;;17.80;99.90;;;;;;5067080;28;20044;-71
2022/10/26 12:07:07;;;;;;;5.10;3.58;;;17.80;99.90;;;;;;5070780;28;20032;-71
2022/10/26 12:09:37;;;;;;;5.18;3.58;;;17.80;99.90;;;;;;5075180;28;20056;-71
2022/10/26 12:12:08;;;;;;;12.70;3.75;;;17.80;99.90;;;;;;5070416;28;20625;-71
2022/10/26 12:14:49;;;;;;;7.15;4.03;;;17.80;99.90;;;;;;5059721;28;20119;-71
2022/10/26 12:17:31;;;;;;;6.85;4.05;;;17.90;99.90;;;;;;5068153;28;20105;-71
2022/10/26 12:20:03;;;;;;;;;;;18.00;99.90;;;;;;5078296;28;20468;-71
2022/10/26 12:22:33;;;;;;;6.87;4.03;;;18.10;99.90;;;;;;5056334;28;19920;-72
2022/10/26 12:25:16;;;;;;;5.55;3.97;;;18.20;99.90;;;;;;5068538;28;20039;-71
2022/10/26 12:27:42;;;;;;;6.10;3.80;;;18.30;99.90;;;;;;5066797;28;20679;-71
2022/10/26 12:30:16;;;;;;;5.75;4.03;;;18.40;99.90;;;;;;5073049;28;20036;-72
2022/10/26 12:32:46;;;;;;;8.65;7.78;;;18.40;99.90;;;;;;5068778;28;20031;-72
2022/10/26 12:35:40;;;;;;;10.85;8.25;;;18.30;99.90;;;;;;5068910;28;20036;-71
2022/10/26 12:38:23;;;;;;;7.40;5.95;;;18.20;99.90;;;;;;5070430;28;20120;-71
2022/10/26 12:41:05;;;;;;;6.78;4.93;;;18.20;99.90;;;;;;5067844;28;20024;-71
2022/10/26 12:43:30;;;;;;;4.97;3.50;;;18.20;99.90;;;;;;5074112;28;20050;-71
2022/10/26 12:46:11;;;;;;;5.93;3.10;;;18.20;99.90;;;;;;5060859;28;21016;-71
2022/10/26 12:48:44;;;;;;;5.78;3.30;;;18.20;99.90;;;;;;5070871;28;20117;-71
2022/10/26 12:51:25;;;;;;;4.03;2.60;;;18.20;99.90;;;;;;5073443;28;20051;-79
2022/10/26 12:54:24;;;;;;;2.95;2.28;;;18.10;99.90;;;;;;5075243;28;20126;-83
2022/10/26 12:56:56;;;;;;;4.22;2.05;;;18.10;99.90;;;;;;5069454;28;20169;-84
2022/10/26 12:59:45;;;;;;;1.60;1.20;;;18.10;99.90;;;;;;5051960;28;20798;-80
2022/10/26 13:02:28;;;;;;;3.45;1.02;;;18.10;99.90;;;;;;5066993;28;20036;-82
2022/10/26 13:04:57;;;;;;;1.92;1.10;;;18.00;99.90;;;;;;5072806;28;20084;-83
2022/10/26 13:07:24;;;;;;;2.10;1.05;;;17.90;99.90;;;;;;5069969;28;20039;-81
2022/10/26 13:10:10;;;;;;;1.30;0.98;;;17.90;99.90;;;;;;5070845;28;20032;-82
2022/10/26 13:12:58;;;;;;;2.60;1.50;;;17.90;99.90;;;;;;5043587;28;20044;-83
2022/10/26 13:15:29;;;;;;;2.35;1.13;;;17.90;99.90;;;;;;5057622;28;20052;-83